Time;durP1;ratioP1;P1;durP2;ratioP2;P2;SDS_P1;SDS_P2;PMS_P1;PMS_P2;Temp;Humidity;BMP_temperature;BMP_pressure;BME280_temperature;BME280_humidity;BME280_pressure;Samples;Min_cycle;Max_cycle;Signal;HPM_P1;HPM_P2
2022/06/25 00:00:52;;;;;;;1.70;1.60;;;;;;;19.89;64.41;96200.22;9977301;29;20066;-56
2022/06/25 00:06:11;;;;;;;2.10;1.75;;;;;;;19.87;64.42;96208.66;9967625;29;20415;-56
2022/06/25 00:17:09;;;;;;;1.53;1.43;;;;;;;19.87;64.28;96197.84;9966752;29;20058;-57
2022/06/25 00:22:28;;;;;;;2.33;1.50;;;;;;;19.88;64.37;96199.44;9982519;29;20054;-57
2022/06/25 00:27:47;;;;;;;1.63;1.48;;;;;;;19.88;64.31;96204.84;9969568;29;20480;-56
2022/06/25 00:33:06;;;;;;;1.75;1.65;;;;;;;19.88;64.41;96217.56;9955267;29;20074;-56
2022/06/25 00:38:26;;;;;;;1.73;1.63;;;;;;;19.88;64.42;96222.97;9942553;29;20069;-56
2022/06/25 00:43:45;;;;;;;1.67;1.55;;;;;;;19.88;64.37;96222.97;9980519;29;20067;-56
2022/06/25 00:49:04;;;;;;;1.85;1.60;;;;;;;19.88;64.36;96228.38;9960544;29;20127;-56
2022/06/25 00:54:24;;;;;;;1.60;1.50;;;;;;;19.87;64.40;96234.91;9974046;29;20062;-56
2022/06/25 00:59:48;;;;;;;1.70;1.60;;;;;;;19.88;64.28;96247.31;9953413;29;20088;-57
2022/06/25 01:05:09;;;;;;;1.67;1.50;;;;;;;19.88;64.42;96241.91;9976765;29;20062;-56
2022/06/25 01:10:28;;;;;;;1.52;1.42;;;;;;;19.87;64.26;96254.59;9954773;29;20574;-56
2022/06/25 01:15:49;;;;;;;2.75;1.60;;;;;;;19.87;64.36;96245.72;9973251;29;20070;-56
2022/06/25 01:21:09;;;;;;;1.98;1.50;;;;;;;19.87;64.26;96251.91;9976518;29;20058;-56
2022/06/25 01:26:29;;;;;;;2.40;1.60;;;;;;;19.86;64.31;96250.34;9965125;29;20150;-56
2022/06/25 01:31:48;;;;;;;1.55;1.45;;;;;;;19.86;64.26;96261.16;9953355;29;20058;-56
2022/06/25 01:37:09;;;;;;;2.28;1.40;;;;;;;19.86;64.28;96261.16;9961425;29;20066;-57
2022/06/25 01:48:07;;;;;;;1.57;1.47;;;;;;;19.87;64.28;96268.13;9978166;29;20059;-57
2022/06/25 01:53:27;;;;;;;1.60;1.50;;;;;;;19.86;64.23;96271.19;9988101;29;20057;-55
2022/06/25 01:58:46;;;;;;;1.45;1.35;;;;;;;19.85;64.16;96267.66;9955308;29;20118;-56
2022/06/25 02:04:06;;;;;;;1.90;1.48;;;;;;;19.85;64.21;96273.09;9964710;29;20062;-56
2022/06/25 02:09:25;;;;;;;1.95;1.60;;;;;;;19.87;64.15;96272.75;9970004;29;20059;-57
2022/06/25 02:14:45;;;;;;;1.88;1.60;;;;;;;19.86;64.22;96271.97;9974773;29;20182;-56
2022/06/25 02:20:05;;;;;;;1.73;1.50;;;;;;;19.85;64.29;96272.31;9978742;29;20483;-56
2022/06/25 02:25:25;;;;;;;1.40;1.30;;;;;;;19.85;64.29;96273.09;9975992;29;20104;-56
2022/06/25 02:30:45;;;;;;;1.50;1.40;;;;;;;19.87;64.19;96278.16;9962240;29;20070;-57
2022/06/25 02:36:05;;;;;;;1.52;1.42;;;;;;;19.85;64.21;96277.69;9973923;29;20069;-57
2022/06/25 02:41:24;;;;;;;1.30;1.20;;;;;;;19.85;64.21;96281.19;9973771;29;20046;-56
2022/06/25 02:46:44;;;;;;;1.50;1.40;;;;;;;19.85;64.19;96273.09;9965130;29;20058;-56
2022/06/25 02:52:03;;;;;;;1.40;1.30;;;;;;;19.84;64.18;96287.75;9974598;29;20054;-57
2022/06/25 03:03:01;;;;;;;1.35;1.25;;;;;;;19.84;64.19;96290.44;9969636;29;20111;-56
2022/06/25 03:08:21;;;;;;;2.03;1.50;;;;;;;19.85;64.19;96288.50;9969950;29;20062;-57
2022/06/25 03:13:41;;;;;;;1.35;1.25;;;;;;;19.84;64.08;96285.03;9944520;29;20070;-57
2022/06/25 03:19:02;;;;;;;1.58;1.38;;;;;;;19.84;64.17;96287.75;9967174;29;20062;-57
2022/06/25 03:24:39;;;;;;;1.60;1.50;;;;;;;19.85;64.13;96291.22;9968821;29;20065;-56
2022/06/25 03:29:58;;;;;;;2.38;1.45;;;;;;;19.84;64.09;96293.16;9955710;29;20054;-57
2022/06/25 03:35:18;;;;;;;1.83;1.48;;;;;;;19.84;64.09;96295.84;9941962;29;20069;-57
2022/06/25 03:41:32;;;;;;;1.50;1.38;;;;;;;19.83;64.14;96299.66;9948858;29;20073;-57
2022/06/25 03:46:37;;;;;;;1.15;1.13;;;;;;;19.84;64.00;96306.66;9963913;29;20058;-56
2022/06/25 03:51:57;;;;;;;1.48;1.38;;;;;;;19.84;64.01;96309.34;9947361;29;20106;-55
2022/06/25 03:57:17;;;;;;;1.63;1.40;;;;;;;19.84;64.01;96305.88;9951799;29;20054;-56
2022/06/25 04:03:02;;;;;;;1.42;1.33;;;;;;;19.84;63.99;96317.47;9931872;29;20054;-56
2022/06/25 04:08:22;;;;;;;1.92;1.50;;;;;;;19.85;63.93;96312.84;9957041;29;20063;-56
2022/06/25 04:13:44;;;;;;;2.35;1.30;;;;;;;19.84;64.62;96317.47;9957574;29;20086;-56
2022/06/25 04:19:06;;;;;;;2.55;1.42;;;;;;;19.84;65.31;96322.09;9979916;29;20066;-55
2022/06/25 04:24:27;;;;;;;1.48;1.38;;;;;;;19.82;65.45;96327.06;9964199;29;20069;-56
2022/06/25 04:29:46;;;;;;;2.47;1.17;;;;;;;19.81;65.71;96328.94;9961232;29;20062;-56
2022/06/25 04:35:12;;;;;;;2.55;1.10;;;;;;;19.81;65.85;96333.56;9961854;29;20082;-56
2022/06/25 04:40:34;;;;;;;1.20;1.10;;;;;;;19.80;65.77;96331.97;9949881;29;20065;-54
2022/06/25 04:45:54;;;;;;;1.25;1.15;;;;;;;19.79;65.94;96346.63;9978932;29;20073;-56
2022/06/25 04:51:19;;;;;;;1.27;1.17;;;;;;;19.78;65.98;96351.25;9958877;29;20474;-56
2022/06/25 04:56:40;;;;;;;1.65;1.13;;;;;;;19.77;66.22;96348.88;9962361;29;20430;-56
2022/06/25 05:01:59;;;;;;;1.92;1.40;;;;;;;19.77;66.42;96355.06;9964307;29;20051;-56
2022/06/25 05:07:28;;;;;;;;;;;;;;;19.74;66.79;96355.75;9964005;29;20058;-57
2022/06/25 05:18:25;;;;;;;1.67;1.20;;;;;;;19.75;65.51;96357.31;9948834;29;20069;-56
2022/06/25 05:23:45;;;;;;;1.77;1.20;;;;;;;19.77;65.19;96360.47;9968488;29;20066;-56
2022/06/25 05:29:05;;;;;;;2.92;1.27;;;;;;;19.77;65.00;96376.69;9964645;29;20439;-57
2022/06/25 05:34:25;;;;;;;2.97;1.60;;;;;;;19.77;64.69;96376.69;9952119;29;20067;-56
2022/06/25 05:39:44;;;;;;;1.88;1.38;;;;;;;19.78;64.60;96389.09;9949757;29;20567;-56
2022/06/25 05:45:05;;;;;;;2.28;1.60;;;;;;;19.77;64.38;96392.91;9944697;29;20143;-57
2022/06/25 05:50:24;;;;;;;2.75;1.85;;;;;;;19.79;64.34;96401.47;9947745;29;20058;-56
2022/06/25 05:55:44;;;;;;;1.92;1.52;;;;;;;19.79;64.33;96411.50;9960901;29;20058;-56
2022/06/25 06:01:03;;;;;;;1.92;1.42;;;;;;;19.79;64.23;96422.31;9990002;29;20537;-56
2022/06/25 06:06:22;;;;;;;1.83;1.50;;;;;;;19.79;64.36;96417.69;9960423;29;20119;-55
2022/06/25 06:11:42;;;;;;;3.00;1.48;;;;;;;19.78;64.64;96424.22;9960740;29;20058;-55
2022/06/25 06:17:01;;;;;;;2.47;1.50;;;;;;;19.78;64.74;96439.63;9968005;29;20070;-58
2022/06/25 06:22:21;;;;;;;2.47;1.55;;;;;;;19.79;64.67;96450.13;9978518;29;20061;-56
2022/06/25 06:27:40;;;;;;;4.05;1.50;;;;;;;19.79;64.78;96450.13;9971250;29;20062;-56
2022/06/25 06:33:00;;;;;;;2.38;1.30;;;;;;;19.80;64.77;96456.31;9965733;29;20084;-56
2022/06/25 06:38:19;;;;;;;2.10;1.50;;;;;;;19.80;64.98;96464.41;9971426;29;20468;-56
2022/06/25 06:43:39;;;;;;;2.92;1.33;;;;;;;19.82;65.48;96475.72;9983375;29;20062;-57
2022/06/25 06:48:58;;;;;;;3.70;1.60;;;;;;;19.83;65.98;96486.16;9977003;29;20054;-57
2022/06/25 06:54:18;;;;;;;3.85;1.60;;;;;;;19.85;66.34;96492.03;9971361;29;20062;-56
2022/06/25 06:59:37;;;;;;;3.97;1.35;;;;;;;19.86;66.37;96499.03;9960126;29;20368;-57
2022/06/25 07:04:56;;;;;;;3.67;1.50;;;;;;;19.85;66.45;96494.75;9945554;29;20663;-58
2022/06/25 07:10:16;;;;;;;2.47;1.42;;;;;;;19.86;66.33;96503.66;9956627;29;20092;-52
2022/06/25 07:15:35;;;;;;;1.42;1.30;;;;;;;19.85;66.09;96500.16;9967170;29;20062;-54
2022/06/25 07:20:55;;;;;;;5.22;1.38;;;;;;;19.85;65.90;96505.56;9937352;29;20083;-55
2022/06/25 07:26:14;;;;;;;4.13;1.40;;;;;;;19.87;65.30;96507.94;9937617;29;20098;-55
2022/06/25 07:31:34;;;;;;;3.85;1.60;;;;;;;19.87;65.32;96506.00;9951118;29;20405;-55
2022/06/25 07:36:53;;;;;;;2.35;1.13;;;;;;;19.88;65.24;96504.13;9969298;29;20078;-53
2022/06/25 07:42:13;;;;;;;4.45;1.30;;;;;;;19.87;65.06;96514.13;9938423;29;20058;-54
2022/06/25 07:47:37;;;;;;;3.25;1.10;;;;;;;19.87;65.12;96516.81;9923524;29;20070;-55
2022/06/25 07:52:57;;;;;;;3.28;1.20;;;;;;;19.88;65.06;96518.41;9967143;29;20051;-55
2022/06/25 07:58:16;;;;;;;2.47;1.42;;;;;;;19.89;65.53;96525.38;9969508;29;20063;-56
2022/06/25 08:03:35;;;;;;;1.48;1.20;;;;;;;19.87;65.47;96524.94;9964109;29;20598;-55
2022/06/25 08:08:55;;;;;;;1.52;1.17;;;;;;;19.89;65.20;96530.00;9931572;29;20066;-55
2022/06/25 08:14:14;;;;;;;2.67;1.23;;;;;;;19.88;65.27;96529.22;9943568;29;20066;-56
2022/06/25 08:19:35;;;;;;;4.13;1.27;;;;;;;19.89;65.60;96547.00;9952580;29;20058;-55
2022/06/25 08:24:56;;;;;;;4.68;1.40;;;;;;;19.91;65.82;96552.09;9965577;29;20058;-59
2022/06/25 08:30:16;;;;;;;2.95;1.50;;;;;;;19.89;66.20;96555.13;9972125;29;20414;-55
2022/06/25 08:35:36;;;;;;;28.85;2.05;;;;;;;19.88;65.73;96561.66;9958627;29;20070;-56
2022/06/25 08:40:56;;;;;;;3.70;1.48;;;;;;;19.91;65.65;96560.19;9965341;29;20070;-56
2022/06/25 08:46:17;;;;;;;5.55;1.30;;;;;;;19.90;65.60;96559.41;9962730;29;20062;-56
2022/06/25 08:51:37;;;;;;;4.25;1.20;;;;;;;19.91;65.33;96568.31;9952331;29;20142;-55
2022/06/25 08:56:57;;;;;;;2.42;1.40;;;;;;;19.90;65.27;96570.22;9965853;29;20066;-52
2022/06/25 09:02:17;;;;;;;10.10;1.40;;;;;;;19.91;65.25;96571.81;9956383;29;20054;-54
2022/06/25 09:07:36;;;;;;;3.42;1.30;;;;;;;19.92;65.37;96575.31;9964226;29;20708;-55
2022/06/25 09:13:01;;;;;;;2.47;1.30;;;;;;;19.94;65.54;96581.97;9978971;29;20081;-55
2022/06/25 09:18:21;;;;;;;4.22;1.30;;;;;;;19.95;65.34;96580.03;9946840;29;20114;-55
2022/06/25 09:24:01;;;;;;;5.15;1.05;;;;;;;19.95;65.53;96583.56;9981611;29;20597;-55
2022/06/25 09:29:20;;;;;;;4.32;1.20;;;;;;;19.95;65.65;96580.03;9961878;29;20119;-52
2022/06/25 09:34:42;;;;;;;4.35;1.30;;;;;;;19.96;65.67;96576.22;9962854;29;20088;-55
2022/06/25 09:40:02;;;;;;;6.35;1.13;;;;;;;19.95;65.61;96588.97;9965463;29;20069;-55
2022/06/25 09:45:22;;;;;;;4.57;1.35;;;;;;;19.95;65.29;96583.56;9972027;29;20062;-55
2022/06/25 09:50:42;;;;;;;29.05;12.60;;;;;;;19.98;65.67;96584.81;9975212;29;20055;-56
2022/06/25 09:56:02;;;;;;;30.25;14.15;;;;;;;20.00;66.18;96589.88;9967051;29;20063;-56
2022/06/25 10:01:26;;;;;;;28.10;13.82;;;;;;;20.03;66.77;96589.19;9948413;29;20066;-56
2022/06/25 10:06:46;;;;;;;31.35;13.75;;;;;;;20.04;67.42;96590.81;9977528;29;20077;-56
2022/06/25 10:12:06;;;;;;;30.00;13.57;;;;;;;20.05;67.90;96593.19;9967062;29;20062;-55
2022/06/25 10:17:25;;;;;;;28.23;12.80;;;;;;;20.07;68.24;96595.53;9973538;29;20046;-56
2022/06/25 10:22:46;;;;;;;28.10;12.70;;;;;;;20.10;69.29;96589.47;9980521;29;20119;-56
2022/06/25 10:28:14;;;;;;;31.92;12.35;;;;;;;20.14;70.15;96587.69;9970118;29;20130;-56
2022/06/25 10:33:59;;;;;;;23.63;11.50;;;;;;;20.14;70.48;96596.56;9964565;29;20471;-56
2022/06/25 10:39:22;;;;;;;24.25;10.60;;;;;;;20.12;70.25;96589.94;9958994;29;20050;-55
2022/06/25 10:44:41;;;;;;;18.67;8.32;;;;;;;20.11;70.27;96586.44;9982631;29;20395;-55
2022/06/25 10:50:22;;;;;;;13.80;7.10;;;;;;;20.11;70.39;96586.44;9978273;29;20058;-56
2022/06/25 10:55:47;;;;;;;14.35;6.80;;;;;;;20.11;70.23;96581.03;9980984;29;20090;-56
2022/06/25 11:01:18;;;;;;;10.02;5.47;;;;;;;20.11;69.89;96583.72;9963057;29;20054;-57
2022/06/25 11:06:39;;;;;;;6.10;4.40;;;;;;;20.10;69.56;96578.66;9958935;29;20054;-56
2022/06/25 11:11:58;;;;;;;4.03;3.70;;;;;;;20.08;70.22;96580.91;9979063;29;20058;-56
2022/06/25 11:17:22;;;;;;;4.10;3.70;;;;;;;20.05;69.64;96590.47;9956612;29;20058;-56
2022/06/25 11:22:50;;;;;;;3.40;3.10;;;;;;;20.05;68.98;96581.53;9976639;29;20058;-56
2022/06/25 11:33:50;;;;;;;5.38;2.90;;;;;;;20.03;68.01;96592.72;9974693;29;20050;-56
2022/06/25 11:39:14;;;;;;;4.47;2.88;;;;;;;20.04;67.67;96596.22;9966585;29;20123;-56
2022/06/25 11:44:44;;;;;;;2.88;2.67;;;;;;;20.04;67.44;96602.41;9963533;29;20058;-56
2022/06/25 11:50:10;;;;;;;3.15;2.60;;;;;;;20.04;67.19;96609.72;9958647;29;20051;-56
2022/06/25 11:55:30;;;;;;;2.88;2.65;;;;;;;20.04;67.12;96623.25;9969813;29;20062;-56
2022/06/25 12:00:57;;;;;;;2.92;2.72;;;;;;;20.03;67.29;96618.94;9976396;29;20433;-55
2022/06/25 12:06:17;;;;;;;2.65;2.45;;;;;;;20.02;67.25;96611.97;9974461;29;20070;-55
2022/06/25 12:11:36;;;;;;;2.58;2.38;;;;;;;20.02;67.32;96628.97;9965242;29;20530;-56
2022/06/25 12:16:56;;;;;;;3.65;2.47;;;;;;;20.02;67.31;96623.56;9962067;29;20589;-55
2022/06/25 12:22:23;;;;;;;2.70;2.50;;;;;;;20.02;67.08;96625.50;9968210;29;20176;-56
2022/06/25 12:27:50;;;;;;;3.20;2.88;;;;;;;20.03;67.36;96632.47;9970190;29;20119;-56
2022/06/25 12:33:13;;;;;;;3.25;3.05;;;;;;;20.03;67.24;96635.16;9960165;29;20736;-55
2022/06/25 12:38:38;;;;;;;3.72;3.42;;;;;;;20.03;67.31;96633.28;9966835;29;21748;-56
2022/06/25 12:43:57;;;;;;;4.10;3.70;;;;;;;20.04;67.38;96632.16;9978246;29;20483;-56
2022/06/25 12:49:16;;;;;;;4.07;3.78;;;;;;;20.04;67.35;96629.44;9976755;29;20465;-56
2022/06/25 12:54:41;;;;;;;3.67;3.38;;;;;;;20.06;67.15;96629.13;9967156;29;20058;-56
2022/06/25 13:00:02;;;;;;;4.75;4.03;;;;;;;20.08;67.15;96637.69;9972170;29;20082;-56
2022/06/25 13:05:23;;;;;;;4.03;3.72;;;;;;;20.09;67.09;96640.06;9957692;29;20058;-56
2022/06/25 13:10:43;;;;;;;4.32;4.03;;;;;;;20.10;67.27;96630.81;9966345;29;20070;-56
2022/06/25 13:16:04;;;;;;;4.55;3.80;;;;;;;20.10;67.06;96643.56;9969173;29;20069;-56
2022/06/25 13:21:25;;;;;;;5.03;4.03;;;;;;;20.12;67.22;96646.72;9973278;29;20073;-55
2022/06/25 13:26:45;;;;;;;4.22;3.90;;;;;;;20.11;67.11;96642.41;9977836;29;20453;-56
2022/06/25 13:32:05;;;;;;;4.43;4.13;;;;;;;20.11;67.26;96639.72;9965413;29;20058;-56
2022/06/25 13:37:25;;;;;;;4.25;3.95;;;;;;;20.12;67.26;96635.91;9959761;29;20059;-56
2022/06/25 13:42:44;;;;;;;5.28;4.78;;;;;;;20.13;67.24;96645.56;9968882;29;20521;-55
2022/06/25 13:48:04;;;;;;;5.32;4.82;;;;;;;20.13;67.35;96637.47;9977524;29;20617;-56
2022/06/25 13:53:23;;;;;;;4.63;4.18;;;;;;;20.12;67.28;96636.69;9968514;29;20070;-55
2022/06/25 13:58:43;;;;;;;5.22;4.82;;;;;;;20.14;67.34;96639.06;9966456;29;20062;-55
2022/06/25 14:04:02;;;;;;;5.47;5.00;;;;;;;20.14;67.38;96631.72;9978004;29;20513;-55
2022/06/25 14:09:22;;;;;;;5.00;4.60;;;;;;;20.14;67.41;96634.44;9976451;29;20865;-55
2022/06/25 14:14:42;;;;;;;5.78;5.32;;;;;;;20.14;67.30;96620.91;9978858;29;20066;-55
2022/06/25 14:20:05;;;;;;;5.95;5.22;;;;;;;20.17;67.16;96621.38;9978184;29;20418;-55
2022/06/25 14:25:26;;;;;;;5.50;5.10;;;;;;;20.16;67.16;96620.59;9969077;29;20066;-55
2022/06/25 14:30:45;;;;;;;5.15;4.72;;;;;;;20.17;67.11;96605.94;9975930;29;20606;-56
2022/06/25 14:47:21;;;;;;;5.10;4.55;;;;;;;20.20;67.00;96597.16;9986842;29;20526;-56
2022/06/25 14:52:41;;;;;;;5.40;4.63;;;;;;;20.21;66.93;96597.94;9971148;29;20054;-56
2022/06/25 14:58:00;;;;;;;5.90;5.18;;;;;;;20.22;66.89;96603.03;9969187;29;20488;-56
2022/06/25 15:03:19;;;;;;;5.35;4.88;;;;;;;20.21;66.87;96606.88;9974905;29;20058;-55
2022/06/25 15:08:39;;;;;;;5.18;4.78;;;;;;;20.23;66.85;96609.22;9973902;29;20119;-55
2022/06/25 15:13:59;;;;;;;5.38;4.85;;;;;;;20.22;66.73;96608.44;9976535;29;20058;-55
2022/06/25 15:19:18;;;;;;;5.65;4.90;;;;;;;20.22;66.78;96603.03;9973520;29;20058;-55
2022/06/25 15:24:38;;;;;;;6.07;5.22;;;;;;;20.22;66.65;96613.06;9976012;29;20065;-55
2022/06/25 15:29:57;;;;;;;5.47;4.95;;;;;;;20.21;66.53;96606.88;9960387;29;20057;-55
2022/06/25 15:35:19;;;;;;;6.72;5.35;;;;;;;20.23;66.60;96599.22;9970937;29;20066;-56
2022/06/25 15:40:39;;;;;;;7.35;5.75;;;;;;;20.23;66.63;96599.22;9987558;29;20097;-56
2022/06/25 15:45:58;;;;;;;6.90;5.47;;;;;;;20.23;66.69;96593.81;9968076;29;20054;-56
2022/06/25 15:51:17;;;;;;;6.45;5.53;;;;;;;20.24;66.69;96591.88;9965120;29;20086;-56
2022/06/25 15:56:37;;;;;;;7.20;5.72;;;;;;;20.24;66.59;96591.88;9968848;29;20054;-56
2022/06/25 16:02:02;;;;;;;8.73;6.32;;;;;;;20.26;66.86;96589.63;9963434;29;20142;-54
2022/06/25 16:07:21;;;;;;;8.65;6.22;;;;;;;20.25;66.74;96601.59;9964794;29;20061;-56
2022/06/25 16:12:41;;;;;;;9.63;6.70;;;;;;;20.25;66.86;96599.66;9970533;29;20066;-55
2022/06/25 16:18:00;;;;;;;7.95;6.40;;;;;;;20.24;66.78;96592.66;9970006;29;20070;-55
2022/06/25 16:23:19;;;;;;;7.22;6.28;;;;;;;20.24;66.65;96600.00;9979226;29;20054;-55
2022/06/25 16:28:39;;;;;;;7.15;6.13;;;;;;;20.23;66.62;96593.81;9973753;29;20073;-56
2022/06/25 16:33:58;;;;;;;7.32;6.20;;;;;;;20.24;66.58;96587.25;9974306;29;20058;-55
2022/06/25 16:39:18;;;;;;;6.32;5.72;;;;;;;20.24;66.63;96589.97;9978247;29;20151;-56
2022/06/25 16:44:37;;;;;;;6.50;5.88;;;;;;;20.25;66.67;96596.97;9968495;29;20062;-56
2022/06/25 16:49:56;;;;;;;7.25;6.47;;;;;;;20.26;66.85;96595.81;9970962;29;20062;-55
2022/06/25 16:55:18;;;;;;;8.18;7.10;;;;;;;20.28;66.92;96600.91;9962596;29;20192;-56
2022/06/25 17:00:37;;;;;;;7.25;6.55;;;;;;;20.29;66.83;96606.00;9968336;29;20483;-57
2022/06/25 17:05:56;;;;;;;8.23;7.25;;;;;;;20.30;67.43;96609.47;9952708;29;20119;-56
2022/06/25 17:11:16;;;;;;;7.55;6.82;;;;;;;20.33;66.80;96612.31;9967957;29;20058;-56
2022/06/25 17:16:36;;;;;;;7.13;6.53;;;;;;;20.31;66.68;96617.25;9962937;29;20069;-56
2022/06/25 17:21:57;;;;;;;6.63;6.03;;;;;;;20.34;67.80;96611.16;9972901;29;20186;-56
2022/06/25 17:27:16;;;;;;;7.07;6.47;;;;;;;20.37;67.42;96614.38;9953167;29;20092;-56
2022/06/25 17:32:36;;;;;;;6.72;6.13;;;;;;;20.34;67.73;96610.38;9954645;29;20916;-56
2022/06/25 17:37:55;;;;;;;6.88;5.80;;;;;;;20.36;68.25;96618.97;9966888;29;20498;-56
2022/06/25 17:43:15;;;;;;;6.45;5.70;;;;;;;20.37;68.71;96633.31;9960705;29;20115;-56
2022/06/25 17:48:35;;;;;;;6.10;5.55;;;;;;;20.35;68.15;96618.19;9961640;29;20114;-56
2022/06/25 17:53:54;;;;;;;6.00;5.50;;;;;;;20.35;68.66;96622.81;9967802;29;20116;-56
2022/06/25 17:59:13;;;;;;;6.18;5.50;;;;;;;20.38;68.95;96626.75;9967524;29;20062;-55
2022/06/25 18:04:33;;;;;;;6.95;6.10;;;;;;;20.37;68.27;96623.25;9976568;29;20076;-55
2022/06/25 18:09:52;;;;;;;5.97;5.47;;;;;;;20.37;68.74;96630.59;9971328;29;20059;-56
2022/06/25 18:15:12;;;;;;;6.15;5.13;;;;;;;20.37;69.08;96636.78;9965533;29;22096;-56
2022/06/25 18:20:33;;;;;;;8.90;5.95;;;;;;;20.38;68.72;96637.56;9961940;29;20062;-56
2022/06/25 18:25:53;;;;;;;7.60;5.40;;;;;;;20.33;67.81;96644.00;9969505;29;20054;-55
2022/06/25 18:31:12;;;;;;;5.95;5.45;;;;;;;20.31;67.69;96644.31;9976911;29;20050;-55
2022/06/25 18:36:32;;;;;;;5.65;5.20;;;;;;;20.29;67.47;96646.56;9966138;29;20480;-56
2022/06/25 18:41:51;;;;;;;5.55;5.03;;;;;;;20.31;67.52;96651.66;9970995;29;20092;-57
2022/06/25 18:47:12;;;;;;;6.10;5.25;;;;;;;20.31;67.59;96647.03;9970126;29;20054;-55
2022/06/25 18:52:31;;;;;;;5.75;5.28;;;;;;;20.31;67.47;96655.13;9964327;29;20059;-56
2022/06/25 18:57:50;;;;;;;6.15;5.65;;;;;;;20.30;67.45;96658.94;9960479;29;20062;-55
2022/06/25 19:03:10;;;;;;;6.25;5.65;;;;;;;20.30;67.43;96663.56;9977371;29;20050;-56
2022/06/25 19:08:29;;;;;;;6.10;5.57;;;;;;;20.30;67.55;96669.78;9972593;29;20062;-55
2022/06/25 19:13:49;;;;;;;7.05;6.45;;;;;;;20.30;67.50;96674.41;9964406;29;20054;-54
2022/06/25 19:19:08;;;;;;;6.63;6.03;;;;;;;20.30;67.30;96677.09;9967015;29;20062;-55
2022/06/25 19:24:28;;;;;;;6.68;6.07;;;;;;;20.28;67.24;96673.94;9965406;29;20123;-55
2022/06/25 19:29:47;;;;;;;6.82;5.90;;;;;;;20.28;67.19;96677.44;9947024;29;20070;-55
2022/06/25 19:35:09;;;;;;;7.05;6.30;;;;;;;20.29;67.29;96678.25;9976279;29;20061;-53
2022/06/25 19:40:29;;;;;;;7.60;6.80;;;;;;;20.29;67.50;96681.72;9961737;29;20070;-56
2022/06/25 19:45:49;;;;;;;9.48;8.10;;;;;;;20.29;67.34;96678.25;9965414;29;20558;-56
2022/06/25 19:51:08;;;;;;;11.38;9.20;;;;;;;20.29;67.12;96679.03;9969230;29;20062;-56
2022/06/25 19:56:32;;;;;;;9.63;8.23;;;;;;;20.29;67.30;96692.56;9967936;29;20070;-55
2022/06/25 20:01:52;;;;;;;10.88;9.73;;;;;;;20.29;67.20;96686.38;9963361;29;20059;-56
2022/06/25 20:07:12;;;;;;;10.40;9.30;;;;;;;20.28;67.06;96690.19;9958108;29;20058;-56
2022/06/25 20:12:32;;;;;;;10.73;9.55;;;;;;;20.29;66.97;96691.78;9954112;29;20807;-54
2022/06/25 20:17:51;;;;;;;9.48;8.57;;;;;;;20.29;66.92;96689.06;9964097;29;20054;-55
2022/06/25 20:23:10;;;;;;;9.88;8.88;;;;;;;20.28;66.84;96687.47;9956218;29;20054;-54
2022/06/25 20:28:29;;;;;;;9.10;8.30;;;;;;;20.28;66.69;96701.78;9961130;29;20078;-55
2022/06/25 20:33:50;;;;;;;9.57;8.68;;;;;;;20.28;66.78;96698.28;9960595;29;20503;-55
2022/06/25 20:39:10;;;;;;;10.02;8.80;;;;;;;20.29;66.77;96705.28;9958601;29;20060;-55
2022/06/25 20:44:29;;;;;;;8.88;7.50;;;;;;;20.28;66.72;96692.88;9959240;29;20724;-55
2022/06/25 20:49:48;;;;;;;8.95;8.23;;;;;;;20.29;66.77;96689.06;9956146;29;20062;-55
2022/06/25 20:55:12;;;;;;;8.73;7.82;;;;;;;20.28;66.58;96688.25;9964207;29;20112;-55
2022/06/25 21:00:32;;;;;;;8.57;7.78;;;;;;;20.29;66.45;96686.38;9972633;29;20084;-54
2022/06/25 21:11:30;;;;;;;8.50;7.70;;;;;;;20.27;66.54;96675.88;9965063;29;20125;-55
2022/06/25 21:16:49;;;;;;;8.18;7.38;;;;;;;20.28;66.52;96672.03;9971811;29;20058;-55
2022/06/25 21:22:08;;;;;;;8.05;7.35;;;;;;;20.29;66.72;96673.63;9960869;29;20055;-55
2022/06/25 21:27:27;;;;;;;8.05;7.25;;;;;;;20.27;66.54;96673.16;9978350;29;20567;-55
2022/06/25 21:32:47;;;;;;;7.55;6.85;;;;;;;20.27;66.45;96678.56;9990486;29;20065;-54
2022/06/25 21:38:06;;;;;;;7.63;6.93;;;;;;;20.27;66.48;96678.56;9959113;29;20061;-54
2022/06/25 21:43:26;;;;;;;7.95;7.25;;;;;;;20.26;66.41;96674.25;9976186;29;20055;-55
2022/06/25 21:48:45;;;;;;;7.15;6.55;;;;;;;20.27;66.44;96672.38;9971034;29;20066;-55
2022/06/25 21:54:05;;;;;;;7.68;6.97;;;;;;;20.27;66.37;96673.16;9966779;29;20065;-54
2022/06/25 21:59:28;;;;;;;6.90;6.30;;;;;;;20.27;66.39;96675.88;9978156;29;20403;-54
2022/06/25 22:04:47;;;;;;;6.97;6.38;;;;;;;20.27;66.38;96680.50;9959085;29;20066;-54
2022/06/25 22:10:08;;;;;;;7.43;6.38;;;;;;;20.26;66.35;96685.09;9960359;29;20590;-55
2022/06/25 22:15:27;;;;;;;7.22;6.55;;;;;;;20.25;66.33;96680.81;9980832;29;20051;-54
2022/06/25 22:20:47;;;;;;;6.95;6.25;;;;;;;20.27;66.28;96685.91;9963102;29;20415;-54
2022/06/25 22:26:06;;;;;;;6.50;5.95;;;;;;;20.26;66.30;96682.38;9968133;29;20061;-54
2022/06/25 22:31:26;;;;;;;6.70;6.10;;;;;;;20.26;66.35;96685.09;9965026;29;20667;-55
2022/06/25 22:36:45;;;;;;;6.72;6.13;;;;;;;20.25;66.20;96688.94;9974461;29;20054;-54
2022/06/25 22:42:05;;;;;;;6.60;6.10;;;;;;;20.26;66.31;96678.91;9970732;29;20062;-54
2022/06/25 22:47:24;;;;;;;6.88;6.28;;;;;;;20.26;66.35;96684.31;9965794;29;20077;-55
2022/06/25 22:52:44;;;;;;;6.88;6.20;;;;;;;20.25;66.07;96691.63;9971554;29;20054;-53
2022/06/25 22:58:04;;;;;;;6.40;5.80;;;;;;;20.25;66.13;96694.34;9978506;29;20058;-55
2022/06/25 23:03:24;;;;;;;5.90;5.40;;;;;;;20.23;65.98;96679.53;9972739;29;20050;-53
2022/06/25 23:08:43;;;;;;;6.55;5.72;;;;;;;20.23;65.80;96687.66;9960432;29;20530;-54
2022/06/25 23:14:02;;;;;;;6.32;5.72;;;;;;;20.23;65.88;96691.19;9967970;29;20055;-54
2022/06/25 23:19:21;;;;;;;6.47;5.88;;;;;;;20.21;65.69;96695.31;9961988;29;20054;-54
2022/06/25 23:24:41;;;;;;;6.88;6.28;;;;;;;20.20;65.46;96697.22;9977254;29;20042;-54
2022/06/25 23:30:02;;;;;;;6.13;5.63;;;;;;;20.21;65.37;96698.03;9958194;29;20687;-55
2022/06/25 23:35:21;;;;;;;5.82;5.22;;;;;;;20.20;65.25;96708.06;9959230;29;20058;-55
2022/06/25 23:40:40;;;;;;;5.47;5.07;;;;;;;20.20;65.41;96708.06;9962813;29;20542;-55
2022/06/25 23:45:59;;;;;;;5.38;4.97;;;;;;;20.20;65.28;96702.66;9962557;29;20107;-55
2022/06/25 23:51:19;;;;;;;6.10;5.60;;;;;;;20.19;65.23;96711.91;9967060;29;20055;-54
2022/06/25 23:56:38;;;;;;;5.88;4.82;;;;;;;20.21;65.29;96720.47;9971854;29;20410;-54
